Time;durP1;ratioP1;P1;durP2;ratioP2;P2;SDS_P1;SDS_P2;PMS_P1;PMS_P2;Temp;Humidity;BMP_temperature;BMP_pressure;BME280_temperature;BME280_humidity;BME280_pressure;Samples;Min_cycle;Max_cycle;Signal;HPM_P1;HPM_P2
2023/02/08 00:00:06;;;;;;;4.38;2.25;;;2.20;99.90;;;;;;5061603;28;20143;-63
2023/02/08 00:02:33;;;;;;;6.75;2.88;;;2.20;99.90;;;;;;5061709;28;20409;-63
2023/02/08 00:05:00;;;;;;;7.95;2.75;;;2.20;99.90;;;;;;5064424;28;20045;-63
2023/02/08 00:07:27;;;;;;;8.75;3.63;;;2.20;99.90;;;;;;5061526;28;20148;-63
2023/02/08 00:09:54;;;;;;;13.27;3.50;;;2.20;99.90;;;;;;5059697;28;20045;-65
2023/02/08 00:12:21;;;;;;;6.53;2.97;;;2.20;99.90;;;;;;5057494;28;20140;-63
2023/02/08 00:14:47;;;;;;;6.88;2.63;;;2.20;99.90;;;;;;5060110;28;20056;-62
2023/02/08 00:17:14;;;;;;;7.28;3.33;;;2.20;99.90;;;;;;5062781;28;20049;-63
2023/02/08 00:19:41;;;;;;;5.50;3.15;;;2.20;99.90;;;;;;5061942;28;20041;-65
2023/02/08 00:22:08;;;;;;;6.22;3.08;;;2.10;99.90;;;;;;5064413;28;20140;-63
2023/02/08 00:24:35;;;;;;;5.22;3.38;;;2.10;99.90;;;;;;5059992;28;20375;-63
2023/02/08 00:27:01;;;;;;;7.97;3.30;;;2.20;99.90;;;;;;5058976;28;20052;-64
2023/02/08 00:29:28;;;;;;;10.38;4.22;;;2.20;99.90;;;;;;5063049;28;20522;-63
2023/02/08 00:31:55;;;;;;;10.68;2.72;;;2.10;99.90;;;;;;5060963;28;20505;-63
2023/02/08 00:34:22;;;;;;;6.72;3.47;;;2.10;99.90;;;;;;5064680;28;20056;-64
2023/02/08 00:36:50;;;;;;;7.22;3.38;;;2.20;99.90;;;;;;5063848;28;20067;-63
2023/02/08 00:39:16;;;;;;;8.20;3.25;;;2.10;99.90;;;;;;5061282;28;20048;-62
2023/02/08 00:41:43;;;;;;;9.15;4.00;;;2.10;99.90;;;;;;5054896;28;20406;-64
2023/02/08 00:44:12;;;;;;;7.00;3.50;;;2.10;99.90;;;;;;5061614;28;20827;-64
2023/02/08 00:46:39;;;;;;;6.28;3.80;;;2.20;99.90;;;;;;5059668;28;20055;-64
2023/02/08 00:49:05;;;;;;;10.05;3.70;;;2.20;99.90;;;;;;5060425;28;20379;-63
2023/02/08 00:51:32;;;;;;;8.27;3.60;;;2.20;99.90;;;;;;5056416;28;20067;-63
2023/02/08 00:53:59;;;;;;;21.40;4.53;;;2.10;99.90;;;;;;5061158;28;20047;-63
2023/02/08 00:56:26;;;;;;;8.60;3.60;;;2.20;99.90;;;;;;5061392;28;20083;-63
2023/02/08 00:58:53;;;;;;;8.52;4.63;;;2.10;99.90;;;;;;5056409;28;20045;-65
2023/02/08 01:01:20;;;;;;;10.00;3.25;;;2.20;99.90;;;;;;5057035;28;20405;-63
2023/02/08 01:03:47;;;;;;;13.80;4.43;;;2.20;99.90;;;;;;5061134;28;20156;-64
2023/02/08 01:06:16;;;;;;;6.88;3.65;;;2.20;99.90;;;;;;5059674;28;20111;-63
2023/02/08 01:08:44;;;;;;;10.65;5.70;;;2.20;99.90;;;;;;5056139;28;20055;-63
2023/02/08 01:11:13;;;;;;;12.25;4.28;;;2.20;99.90;;;;;;5059734;28;20059;-63
2023/02/08 01:13:40;;;;;;;8.48;3.63;;;2.20;99.90;;;;;;5056768;28;20487;-66
2023/02/08 01:16:14;;;;;;;11.48;4.30;;;2.20;99.90;;;;;;5061848;28;20060;-64
2023/02/08 01:18:43;;;;;;;12.38;3.97;;;2.20;99.90;;;;;;5059548;28;20048;-65
2023/02/08 01:21:13;;;;;;;9.95;3.88;;;2.20;99.90;;;;;;5056740;28;20597;-64
2023/02/08 01:23:41;;;;;;;9.93;3.75;;;2.20;99.90;;;;;;5062218;28;20149;-66
2023/02/08 01:26:09;;;;;;;9.40;4.47;;;2.20;99.90;;;;;;5062081;28;20276;-64
2023/02/08 01:28:37;;;;;;;9.05;4.78;;;2.30;99.90;;;;;;5058635;28;20056;-65
2023/02/08 01:31:09;;;;;;;25.08;4.68;;;2.20;99.90;;;;;;5054390;28;20040;-63
2023/02/08 01:33:37;;;;;;;13.55;4.85;;;2.30;99.90;;;;;;5056386;28;20140;-64
2023/02/08 01:36:06;;;;;;;11.98;4.78;;;2.30;99.90;;;;;;5060970;28;20160;-62
2023/02/08 01:38:34;;;;;;;11.45;4.63;;;2.30;99.90;;;;;;5059769;28;20163;-64
2023/02/08 01:41:01;;;;;;;15.23;5.72;;;2.30;99.90;;;;;;5061182;28;20057;-63
2023/02/08 01:43:53;;;;;;;14.88;4.75;;;2.30;99.90;;;;;;5057145;28;20059;-64
2023/02/08 01:46:21;;;;;;;8.82;4.90;;;2.30;99.90;;;;;;5059481;28;20079;-64
2023/02/08 01:48:49;;;;;;;10.95;5.63;;;2.30;99.90;;;;;;5056666;28;20044;-63
2023/02/08 01:51:20;;;;;;;22.40;4.97;;;2.30;99.90;;;;;;5059937;28;20437;-63
2023/02/08 01:53:49;;;;;;;16.95;4.88;;;2.30;99.90;;;;;;5054136;28;20056;-65
2023/02/08 01:56:28;;;;;;;11.88;4.47;;;2.30;99.90;;;;;;5059309;28;20072;-64
2023/02/08 01:59:03;;;;;;;9.82;5.75;;;2.30;99.90;;;;;;5057309;28;20044;-63
2023/02/08 02:01:31;;;;;;;13.23;4.70;;;2.30;99.90;;;;;;5059782;28;20338;-66
2023/02/08 02:04:02;;;;;;;17.85;5.70;;;2.30;99.90;;;;;;5054354;28;20097;-63
2023/02/08 02:06:33;;;;;;;12.77;5.10;;;2.30;99.90;;;;;;5060130;28;20060;-66
2023/02/08 02:09:04;;;;;;;11.18;4.88;;;2.30;99.90;;;;;;5058550;28;20044;-63
2023/02/08 02:11:31;;;;;;;19.35;7.13;;;2.30;99.90;;;;;;5058144;28;20049;-63
2023/02/08 02:14:00;;;;;;;13.02;6.03;;;2.30;99.90;;;;;;5060503;28;20754;-62
2023/02/08 02:16:26;;;;;;;10.85;5.57;;;2.40;99.90;;;;;;5058988;28;20058;-64
2023/02/08 02:18:53;;;;;;;12.75;5.72;;;2.30;99.90;;;;;;5060971;28;20452;-63
2023/02/08 02:21:46;;;;;;;12.10;5.28;;;2.30;99.90;;;;;;5056692;28;20059;-64
2023/02/08 02:24:35;;;;;;;11.13;6.15;;;2.40;99.90;;;;;;5056099;28;20437;-64
2023/02/08 02:27:11;;;;;;;9.75;6.88;;;2.40;99.90;;;;;;5058560;28;20531;-64
2023/02/08 02:30:00;;;;;;;11.18;6.22;;;2.40;99.90;;;;;;5057362;28;20116;-63
2023/02/08 02:32:49;;;;;;;16.08;8.38;;;2.40;99.90;;;;;;5059555;28;20422;-63
2023/02/08 02:35:28;;;;;;;14.80;7.30;;;2.50;99.90;;;;;;5056377;28;20048;-63
2023/02/08 02:38:18;;;;;;;13.82;7.18;;;2.50;99.90;;;;;;5059406;28;20044;-64
2023/02/08 02:40:56;;;;;;;21.45;7.38;;;2.50;99.90;;;;;;5060007;28;20052;-63
2023/02/08 02:43:45;;;;;;;14.15;7.22;;;2.50;99.90;;;;;;5056375;28;20057;-64
2023/02/08 02:46:21;;;;;;;14.30;7.18;;;2.50;99.90;;;;;;5056702;28;20135;-63
2023/02/08 02:49:18;;;;;;;18.17;9.85;;;2.50;99.90;;;;;;5060588;28;20057;-63
2023/02/08 02:51:57;;;;;;;13.35;7.55;;;2.50;99.90;;;;;;5049292;28;20072;-63
2023/02/08 02:54:33;;;;;;;16.00;7.75;;;2.40;99.90;;;;;;5062408;28;20139;-63
2023/02/08 02:57:05;;;;;;;23.60;8.30;;;2.50;99.90;;;;;;5057488;28;20115;-64
2023/02/08 02:59:34;;;;;;;18.25;9.00;;;2.50;99.90;;;;;;5065632;28;20052;-64
2023/02/08 03:02:02;;;;;;;22.52;10.48;;;2.50;99.90;;;;;;5059394;28;20103;-63
2023/02/08 03:04:32;;;;;;;14.65;8.55;;;2.50;99.90;;;;;;5062273;28;20215;-63
2023/02/08 03:07:20;;;;;;;19.77;9.07;;;2.50;99.90;;;;;;5059042;28;20534;-63
2023/02/08 03:10:01;;;;;;;17.92;8.80;;;2.50;99.90;;;;;;5058040;28;20048;-65
2023/02/08 03:12:59;;;;;;;17.52;10.88;;;2.50;99.90;;;;;;5062738;28;20048;-63
2023/02/08 03:15:59;;;;;;;16.35;9.57;;;2.50;99.90;;;;;;5059924;28;20558;-63
2023/02/08 03:18:43;;;;;;;17.35;9.80;;;2.50;99.90;;;;;;5059467;28;20098;-63
2023/02/08 03:21:26;;;;;;;17.20;9.75;;;2.50;99.90;;;;;;5064640;28;20138;-63
2023/02/08 03:24:08;;;;;;;20.13;11.95;;;2.50;99.90;;;;;;5061143;28;20047;-63
2023/02/08 03:26:37;;;;;;;21.17;10.90;;;2.50;99.90;;;;;;5062846;28;20059;-66
2023/02/08 03:29:22;;;;;;;20.85;10.98;;;2.50;99.90;;;;;;5062282;28;20044;-63
2023/02/08 03:31:59;;;;;;;17.73;11.00;;;2.60;99.90;;;;;;5063369;28;20139;-64
2023/02/08 03:34:37;;;;;;;26.40;12.13;;;2.60;99.90;;;;;;5060826;28;20048;-63
2023/02/08 03:37:09;;;;;;;20.42;11.65;;;2.50;99.90;;;;;;5063500;28;20040;-63
2023/02/08 03:39:39;;;;;;;21.75;12.40;;;2.60;99.90;;;;;;5060145;28;20087;-64
2023/02/08 03:42:15;;;;;;;18.33;9.80;;;2.60;99.90;;;;;;5067109;28;20049;-66
2023/02/08 03:44:52;;;;;;;18.92;10.45;;;2.60;99.90;;;;;;5064572;28;20839;-65
2023/02/08 03:47:22;;;;;;;27.13;11.23;;;2.60;99.90;;;;;;5058979;28;20102;-64
2023/02/08 03:49:52;;;;;;;22.05;11.52;;;2.60;99.90;;;;;;5074084;28;20078;-64
2023/02/08 03:52:22;;;;;;;24.60;10.80;;;2.60;99.90;;;;;;5058904;28;20041;-63
2023/02/08 03:54:56;;;;;;;15.73;9.55;;;2.60;99.90;;;;;;5059032;28;20402;-63
2023/02/08 03:57:27;;;;;;;17.92;10.27;;;2.60;99.90;;;;;;5058631;28;20075;-65
2023/02/08 03:59:59;;;;;;;21.85;11.73;;;2.60;99.90;;;;;;5059686;28;20039;-64
2023/02/08 04:02:30;;;;;;;20.48;12.43;;;2.50;99.90;;;;;;5061896;28;20141;-65
2023/02/08 04:04:59;;;;;;;17.65;11.88;;;2.50;99.90;;;;;;5063952;28;20387;-63
2023/02/08 04:07:26;;;;;;;19.38;13.13;;;2.50;99.90;;;;;;5058023;28;20040;-63
2023/02/08 04:09:53;;;;;;;18.88;11.20;;;2.50;99.90;;;;;;5058520;28;20067;-63
2023/02/08 04:12:19;;;;;;;21.42;12.88;;;2.50;99.90;;;;;;5062046;28;20044;-64
2023/02/08 04:14:46;;;;;;;21.98;13.32;;;2.50;99.90;;;;;;5066131;28;20051;-66
2023/02/08 04:17:13;;;;;;;22.45;12.68;;;2.50;99.90;;;;;;5062154;28;20047;-64
2023/02/08 04:19:40;;;;;;;23.42;13.07;;;2.60;99.90;;;;;;5061428;28;20044;-63
2023/02/08 04:22:07;;;;;;;25.75;13.50;;;2.50;99.90;;;;;;5063139;28;20396;-64
2023/02/08 04:24:33;;;;;;;22.05;11.55;;;2.60;99.90;;;;;;5063746;28;20049;-63
2023/02/08 04:27:00;;;;;;;24.42;11.73;;;2.60;99.90;;;;;;5060358;28;20066;-65
2023/02/08 04:29:28;;;;;;;23.63;13.40;;;2.60;99.90;;;;;;5059941;28;20080;-66
2023/02/08 04:31:55;;;;;;;25.92;13.07;;;2.60;99.90;;;;;;5060766;28;20052;-63
2023/02/08 04:34:22;;;;;;;27.75;12.98;;;2.60;99.90;;;;;;5058193;28;20049;-63
2023/02/08 04:36:49;;;;;;;34.95;14.07;;;2.60;99.90;;;;;;5059482;28;20157;-64
2023/02/08 04:39:16;;;;;;;25.05;14.68;;;2.60;99.90;;;;;;5063094;28;20051;-63
2023/02/08 04:41:43;;;;;;;23.60;13.77;;;2.60;99.90;;;;;;5058922;28;20139;-63
2023/02/08 04:44:09;;;;;;;27.48;14.07;;;2.60;99.90;;;;;;5061893;28;20072;-66
2023/02/08 04:46:36;;;;;;;26.23;12.90;;;2.60;99.90;;;;;;5062435;28;21008;-63
2023/02/08 04:49:03;;;;;;;30.63;15.48;;;2.60;99.90;;;;;;5059397;28;20048;-64
2023/02/08 04:51:30;;;;;;;26.95;12.73;;;2.60;99.90;;;;;;5062162;28;20071;-65
2023/02/08 04:53:57;;;;;;;33.92;15.25;;;2.70;99.90;;;;;;5052917;28;20055;-66
2023/02/08 04:56:24;;;;;;;31.65;13.73;;;2.60;99.90;;;;;;5061040;28;20484;-63
2023/02/08 04:58:50;;;;;;;25.88;14.00;;;2.70;99.90;;;;;;5055149;28;20044;-66
2023/02/08 05:01:17;;;;;;;26.35;14.38;;;2.70;99.90;;;;;;5062807;28;20391;-66
2023/02/08 05:03:44;;;;;;;30.58;13.90;;;2.70;99.90;;;;;;5059457;28;20422;-63
2023/02/08 05:06:11;;;;;;;23.08;12.05;;;2.70;99.90;;;;;;5062117;28;20040;-65
2023/02/08 05:08:38;;;;;;;20.98;13.75;;;2.70;99.90;;;;;;5062029;28;20139;-65
2023/02/08 05:11:05;;;;;;;20.70;12.18;;;2.70;99.90;;;;;;5063627;28;20136;-70
2023/02/08 05:13:32;;;;;;;20.58;12.15;;;2.70;99.90;;;;;;5061379;28;20450;-65
2023/02/08 05:15:59;;;;;;;21.52;13.00;;;2.70;99.90;;;;;;5059173;28;20041;-63
2023/02/08 05:18:26;;;;;;;19.77;12.65;;;2.70;99.90;;;;;;5062197;28;20076;-63
2023/02/08 05:20:57;;;;;;;22.98;13.27;;;2.80;99.90;;;;;;5061585;28;20062;-65
2023/02/08 05:23:25;;;;;;;20.15;12.55;;;2.80;99.90;;;;;;5060282;28;20045;-67
2023/02/08 05:25:52;;;;;;;17.88;11.02;;;2.80;99.90;;;;;;5060825;28;20128;-64
2023/02/08 05:28:19;;;;;;;27.27;14.38;;;2.80;99.90;;;;;;5062838;28;20044;-64
2023/02/08 05:30:46;;;;;;;20.73;13.38;;;2.80;99.90;;;;;;5055552;28;20044;-64
2023/02/08 05:33:13;;;;;;;29.15;13.68;;;2.80;99.90;;;;;;5061392;28;20083;-64
2023/02/08 05:35:40;;;;;;;22.00;13.98;;;2.80;99.90;;;;;;5060070;28;20041;-66
2023/02/08 05:38:07;;;;;;;24.30;14.70;;;2.80;99.90;;;;;;5060734;28;20080;-64
2023/02/08 05:40:34;;;;;;;24.52;13.48;;;2.80;99.90;;;;;;5062258;28;20049;-63
2023/02/08 05:43:01;;;;;;;28.08;14.57;;;2.70;99.90;;;;;;5057975;28;20051;-64
2023/02/08 05:45:28;;;;;;;21.55;13.13;;;2.70;99.90;;;;;;5059475;28;20150;-64
2023/02/08 05:47:55;;;;;;;29.33;14.68;;;2.70;99.90;;;;;;5060342;28;20051;-64
2023/02/08 05:50:22;;;;;;;21.45;15.02;;;2.70;99.90;;;;;;5060883;28;20043;-67
2023/02/08 05:52:49;;;;;;;24.95;14.80;;;2.70;99.90;;;;;;5057364;28;20639;-67
2023/02/08 05:55:16;;;;;;;20.92;13.55;;;2.70;99.90;;;;;;5060603;28;20098;-63
2023/02/08 05:57:43;;;;;;;28.75;15.77;;;2.70;99.90;;;;;;5054809;28;20077;-64
2023/02/08 06:00:10;;;;;;;22.10;13.98;;;2.70;99.90;;;;;;5058402;28;20064;-66
2023/02/08 06:02:43;;;;;;;30.35;12.77;;;2.70;99.90;;;;;;5057420;28;20094;-63
2023/02/08 06:05:10;;;;;;;20.95;13.55;;;2.70;99.90;;;;;;5062119;28;20452;-65
2023/02/08 06:07:37;;;;;;;28.17;13.07;;;2.70;99.90;;;;;;5060198;28;20060;-63
2023/02/08 06:10:04;;;;;;;26.08;14.52;;;2.70;99.90;;;;;;5062095;28;20059;-63
2023/02/08 06:12:31;;;;;;;24.08;13.15;;;2.70;99.90;;;;;;5061885;28;20049;-64
2023/02/08 06:14:57;;;;;;;28.05;14.55;;;2.70;99.90;;;;;;5057707;28;20056;-65
2023/02/08 06:17:24;;;;;;;27.42;14.43;;;2.70;99.90;;;;;;5057917;28;20376;-63
2023/02/08 06:19:51;;;;;;;32.90;15.60;;;2.70;99.90;;;;;;5058107;28;20071;-63
2023/02/08 06:22:18;;;;;;;24.50;14.18;;;2.70;99.90;;;;;;5061887;28;20401;-64
2023/02/08 06:24:46;;;;;;;26.90;16.05;;;2.70;99.90;;;;;;5056898;28;20505;-64
2023/02/08 06:27:13;;;;;;;24.63;16.15;;;2.70;99.90;;;;;;5057065;28;20134;-64
2023/02/08 06:29:40;;;;;;;23.92;15.07;;;2.70;99.90;;;;;;5058769;28;20406;-65
2023/02/08 06:32:07;;;;;;;23.95;13.18;;;2.70;99.90;;;;;;5055229;28;20044;-64
2023/02/08 06:34:34;;;;;;;31.30;15.32;;;2.70;99.90;;;;;;5044259;28;20044;-65
2023/02/08 06:37:01;;;;;;;32.38;16.77;;;2.70;99.90;;;;;;5058242;28;20045;-64
2023/02/08 06:39:28;;;;;;;28.10;15.45;;;2.70;99.90;;;;;;5060448;28;20477;-65
2023/02/08 06:41:56;;;;;;;26.00;15.20;;;2.70;99.90;;;;;;5054981;28;20142;-66
2023/02/08 06:44:23;;;;;;;33.25;16.90;;;2.70;99.90;;;;;;5061242;28;20051;-65
2023/02/08 06:46:50;;;;;;;34.90;17.40;;;2.70;99.90;;;;;;5054821;28;20533;-64
2023/02/08 06:49:17;;;;;;;28.88;15.70;;;2.70;99.90;;;;;;5057222;28;20052;-68
2023/02/08 06:51:44;;;;;;;26.08;16.75;;;2.70;99.90;;;;;;5057915;28;20076;-68
2023/02/08 06:54:11;;;;;;;30.40;16.40;;;2.70;99.90;;;;;;5055089;28;20128;-64
2023/02/08 06:56:38;;;;;;;33.30;15.98;;;2.70;99.90;;;;;;5063576;28;20044;-68
2023/02/08 06:59:05;;;;;;;30.00;14.60;;;2.70;99.90;;;;;;5054991;28;20391;-66
2023/02/08 07:01:32;;;;;;;31.92;16.77;;;2.70;99.90;;;;;;5061969;28;20050;-65
2023/02/08 07:03:58;;;;;;;30.05;16.27;;;2.70;99.90;;;;;;5059290;28;20055;-67
2023/02/08 07:06:25;;;;;;;32.45;16.92;;;2.70;99.90;;;;;;5061446;28;20574;-65
2023/02/08 07:08:52;;;;;;;31.58;18.00;;;2.70;99.90;;;;;;5063051;28;20041;-66
2023/02/08 07:11:20;;;;;;;29.15;16.98;;;2.70;99.90;;;;;;5060466;28;20139;-65
2023/02/08 07:13:48;;;;;;;26.67;15.52;;;2.70;99.90;;;;;;5060402;28;20489;-65
2023/02/08 07:16:16;;;;;;;33.35;16.30;;;2.70;99.90;;;;;;5059584;28;20558;-64
2023/02/08 07:18:44;;;;;;;32.50;17.67;;;2.70;99.90;;;;;;5058763;28;20136;-66
2023/02/08 07:21:11;;;;;;;27.75;16.35;;;2.70;99.90;;;;;;5055573;28;20045;-64
2023/02/08 07:23:39;;;;;;;29.95;18.85;;;2.80;99.90;;;;;;5061758;28;20723;-65
2023/02/08 07:26:08;;;;;;;29.25;16.02;;;2.80;99.90;;;;;;5056088;28;20136;-66
2023/02/08 07:28:35;;;;;;;28.92;15.68;;;2.80;99.90;;;;;;5062036;28;20060;-65
2023/02/08 07:31:11;;;;;;;32.35;17.45;;;2.80;99.90;;;;;;5058549;28;20100;-65
2023/02/08 07:33:38;;;;;;;32.97;16.05;;;2.80;99.90;;;;;;5060599;28;20044;-66
2023/02/08 07:36:07;;;;;;;27.67;15.07;;;2.90;99.90;;;;;;5057412;28;20546;-65
2023/02/08 07:38:34;;;;;;;32.85;17.50;;;2.90;99.90;;;;;;5058539;28;20132;-65
2023/02/08 07:41:05;;;;;;;30.02;16.35;;;3.00;99.90;;;;;;5062554;28;20045;-72
2023/02/08 07:43:33;;;;;;;30.67;17.23;;;3.00;99.90;;;;;;5060649;28;20136;-65
2023/02/08 07:46:13;;;;;;;25.88;15.45;;;3.00;99.90;;;;;;5075541;28;20094;-68
2023/02/08 07:48:41;;;;;;;28.63;16.15;;;3.00;99.90;;;;;;5059264;28;20071;-66
2023/02/08 07:51:09;;;;;;;30.80;17.08;;;3.00;99.90;;;;;;5059925;28;20056;-64
2023/02/08 07:53:36;;;;;;;36.10;17.33;;;3.10;99.90;;;;;;5057045;28;20570;-65
2023/02/08 07:56:04;;;;;;;31.98;15.75;;;3.10;99.90;;;;;;5058057;28;20503;-65
2023/02/08 07:58:31;;;;;;;30.73;16.92;;;3.10;99.90;;;;;;5059609;28;20048;-65
2023/02/08 08:00:58;;;;;;;29.65;16.65;;;3.10;99.90;;;;;;5061864;28;20159;-65
2023/02/08 08:03:38;;;;;;;25.33;14.40;;;3.10;99.90;;;;;;5064273;28;20053;-64
2023/02/08 08:06:05;;;;;;;27.48;15.35;;;3.10;99.90;;;;;;5066332;28;20040;-65
2023/02/08 08:08:32;;;;;;;27.27;15.57;;;3.10;99.90;;;;;;5062242;28;20088;-65
2023/02/08 08:10:59;;;;;;;28.90;17.30;;;3.10;99.90;;;;;;5055890;28;20557;-66
2023/02/08 08:13:29;;;;;;;30.35;15.95;;;3.10;99.90;;;;;;5058295;28;20049;-66
2023/02/08 08:15:56;;;;;;;27.65;15.10;;;3.10;99.90;;;;;;5057955;28;20061;-64
2023/02/08 08:18:23;;;;;;;32.28;15.07;;;3.10;99.90;;;;;;5060176;28;20045;-64
2023/02/08 08:20:50;;;;;;;25.80;17.30;;;3.10;99.90;;;;;;5054815;28;20059;-64
2023/02/08 08:23:18;;;;;;;29.48;17.08;;;3.10;99.90;;;;;;5056587;28;20049;-66
2023/02/08 08:25:45;;;;;;;23.80;15.07;;;3.10;99.90;;;;;;5059279;28;20516;-64
2023/02/08 08:28:12;;;;;;;32.08;16.73;;;3.10;99.90;;;;;;5060647;28;20379;-64
2023/02/08 08:30:43;;;;;;;26.42;14.50;;;3.20;99.90;;;;;;5064148;28;20044;-65
2023/02/08 08:33:12;;;;;;;32.90;16.85;;;3.20;99.90;;;;;;5062079;28;20048;-65
2023/02/08 08:35:42;;;;;;;29.98;17.30;;;3.20;99.90;;;;;;5063164;28;20051;-66
2023/02/08 08:38:09;;;;;;;28.10;16.90;;;3.20;99.90;;;;;;5060563;28;20040;-64
2023/02/08 08:40:36;;;;;;;32.97;17.30;;;3.20;99.90;;;;;;5061303;28;20045;-68
2023/02/08 08:43:03;;;;;;;33.15;17.13;;;3.20;99.90;;;;;;5054596;28;20048;-64
2023/02/08 08:45:30;;;;;;;24.38;15.15;;;3.20;99.90;;;;;;5063547;28;20079;-65
2023/02/08 08:47:57;;;;;;;31.33;17.00;;;3.20;99.90;;;;;;5056750;28;20053;-64
2023/02/08 08:50:24;;;;;;;28.35;14.77;;;3.20;99.90;;;;;;5063693;28;20109;-65
2023/02/08 08:52:50;;;;;;;27.52;16.63;;;3.30;99.90;;;;;;5059795;28;20474;-68
2023/02/08 08:55:17;;;;;;;31.15;16.63;;;3.30;99.90;;;;;;5058597;28;20506;-64
2023/02/08 08:57:44;;;;;;;27.90;16.13;;;3.30;99.90;;;;;;5060580;28;20067;-65
2023/02/08 09:00:12;;;;;;;32.13;17.42;;;3.30;99.90;;;;;;5064894;28;20044;-66
2023/02/08 09:02:38;;;;;;;31.40;17.77;;;3.30;99.90;;;;;;5062312;28;20407;-65
2023/02/08 09:05:06;;;;;;;36.47;18.92;;;3.30;99.90;;;;;;5060067;28;20131;-65
2023/02/08 09:07:34;;;;;;;30.23;17.38;;;3.40;99.90;;;;;;5063599;28;20056;-64
2023/02/08 09:10:01;;;;;;;30.85;16.42;;;3.40;99.90;;;;;;5053418;28;20048;-64
2023/02/08 09:12:28;;;;;;;32.95;20.33;;;3.40;99.90;;;;;;5063172;28;20064;-67
2023/02/08 09:14:55;;;;;;;35.72;17.75;;;3.40;99.90;;;;;;5056748;28;20380;-67
2023/02/08 09:17:22;;;;;;;32.70;16.65;;;3.40;99.90;;;;;;5061666;28;20058;-64
2023/02/08 09:19:48;;;;;;;25.50;15.98;;;3.40;99.90;;;;;;5062927;28;20051;-64
2023/02/08 09:22:16;;;;;;;30.48;17.45;;;3.40;99.90;;;;;;5059603;28;20051;-63
2023/02/08 09:24:42;;;;;;;27.80;17.20;;;3.40;99.90;;;;;;5062596;28;20472;-64
2023/02/08 09:27:09;;;;;;;25.58;15.48;;;3.50;99.90;;;;;;5060611;28;20422;-64
2023/02/08 09:29:36;;;;;;;26.88;15.90;;;3.40;99.90;;;;;;5060048;28;20079;-63
2023/02/08 09:32:03;;;;;;;31.52;15.98;;;3.50;99.90;;;;;;5059141;28;20128;-66
2023/02/08 09:34:30;;;;;;;21.77;15.18;;;3.50;99.90;;;;;;5056608;28;20477;-64
2023/02/08 09:36:57;;;;;;;27.33;17.88;;;3.50;99.90;;;;;;5058633;28;20079;-65
2023/02/08 09:39:24;;;;;;;27.90;13.88;;;3.50;99.90;;;;;;5062392;28;20057;-65
2023/02/08 09:42:13;;;;;;;26.42;16.00;;;3.50;99.90;;;;;;5060511;28;20040;-64
2023/02/08 09:44:54;;;;;;;25.67;15.90;;;3.50;99.90;;;;;;5060018;28;20040;-67
2023/02/08 09:47:27;;;;;;;24.15;14.35;;;3.60;99.90;;;;;;5062544;28;20062;-66
2023/02/08 09:50:11;;;;;;;28.33;15.85;;;3.60;99.90;;;;;;5057436;28;20505;-64
2023/02/08 09:52:51;;;;;;;27.83;16.45;;;3.60;99.90;;;;;;5059665;28;20048;-64
2023/02/08 09:55:56;;;;;;;24.40;15.23;;;3.60;99.90;;;;;;5062061;28;20048;-63
2023/02/08 09:58:37;;;;;;;26.88;15.52;;;3.60;99.90;;;;;;5059589;28;20401;-65
2023/02/08 10:01:10;;;;;;;28.10;14.38;;;3.60;99.90;;;;;;5073401;28;20129;-64
2023/02/08 10:03:41;;;;;;;26.85;15.88;;;3.60;99.90;;;;;;5059858;28;20046;-63
2023/02/08 10:06:11;;;;;;;23.63;12.98;;;3.60;99.90;;;;;;5061783;28;20079;-65
2023/02/08 10:08:39;;;;;;;;;;;3.60;99.90;;;;;;5060476;28;20607;-63
2023/02/08 10:11:21;;;;;;;29.00;14.20;;;3.50;99.90;;;;;;5059533;28;20015;-66
2023/02/08 10:14:00;;;;;;;25.75;15.32;;;3.50;99.90;;;;;;5061252;28;20144;-65
2023/02/08 10:16:43;;;;;;;28.25;14.18;;;3.50;99.90;;;;;;5059288;28;20143;-64
2023/02/08 10:19:39;;;;;;;25.13;14.93;;;3.40;99.90;;;;;;5059824;28;20063;-64
2023/02/08 10:22:23;;;;;;;25.02;15.25;;;3.40;99.90;;;;;;5054446;28;20045;-65
2023/02/08 10:25:05;;;;;;;27.73;14.60;;;3.40;99.90;;;;;;5060043;28;20045;-66
2023/02/08 10:28:09;;;;;;;25.70;13.35;;;3.30;99.90;;;;;;5063025;28;20136;-65
2023/02/08 10:30:53;;;;;;;25.08;15.60;;;3.30;99.90;;;;;;5062212;28;20086;-64
2023/02/08 10:33:28;;;;;;;27.40;15.48;;;3.40;99.90;;;;;;5055626;28;20045;-64
2023/02/08 10:35:56;;;;;;;27.48;17.88;;;3.40;99.90;;;;;;5056297;28;20075;-64
2023/02/08 10:38:30;;;;;;;29.35;16.13;;;3.40;99.90;;;;;;5061612;28;20735;-64
2023/02/08 10:41:17;;;;;;;28.20;17.55;;;3.50;99.90;;;;;;5059781;28;20371;-64
2023/02/08 10:44:01;;;;;;;27.55;16.67;;;3.50;99.90;;;;;;5053499;28;20083;-65
2023/02/08 10:46:41;;;;;;;27.52;15.90;;;3.50;99.90;;;;;;5057633;28;20063;-64
2023/02/08 10:49:39;;;;;;;;;;;3.60;99.90;;;;;;5057267;28;20061;-65
2023/02/08 10:52:06;;;;;;;27.33;14.85;;;3.60;99.90;;;;;;5047238;28;19927;-64
2023/02/08 10:54:34;;;;;;;22.23;14.30;;;3.80;99.90;;;;;;5063972;28;20040;-66
2023/02/08 10:57:05;;;;;;;27.35;16.02;;;3.80;99.90;;;;;;5064452;28;20445;-65
2023/02/08 10:59:44;;;;;;;27.80;17.30;;;3.90;99.90;;;;;;5044913;28;20056;-65
2023/02/08 11:02:31;;;;;;;27.10;15.63;;;3.90;99.90;;;;;;5057585;28;20072;-63
2023/02/08 11:05:08;;;;;;;25.20;14.98;;;3.90;99.90;;;;;;5057433;28;20308;-65
2023/02/08 11:07:35;;;;;;;28.20;15.20;;;3.80;99.90;;;;;;5060260;28;20048;-64
2023/02/08 11:10:14;;;;;;;28.45;14.93;;;3.70;99.90;;;;;;5059201;28;20068;-63
2023/02/08 11:12:42;;;;;;;25.80;15.57;;;3.70;99.90;;;;;;5057348;28;20135;-65
2023/02/08 11:15:23;;;;;;;29.52;15.98;;;3.70;99.90;;;;;;5057132;28;20052;-66
2023/02/08 11:17:59;;;;;;;32.97;18.15;;;3.70;99.90;;;;;;5061154;28;20047;-64
2023/02/08 11:20:37;;;;;;;27.48;15.80;;;3.60;99.90;;;;;;5064152;28;20048;-67
2023/02/08 11:23:16;;;;;;;26.58;15.90;;;3.60;99.90;;;;;;5059722;28;20463;-64
2023/02/08 11:25:43;;;;;;;24.15;15.27;;;3.60;99.90;;;;;;5062671;28;20072;-67
2023/02/08 11:28:30;;;;;;;31.02;16.02;;;3.50;99.90;;;;;;5062826;28;20109;-65
2023/02/08 11:31:00;;;;;;;29.13;16.92;;;3.50;99.90;;;;;;5064998;28;20041;-64
2023/02/08 11:33:28;;;;;;;24.85;16.65;;;3.50;99.90;;;;;;5061016;28;20646;-67
2023/02/08 11:36:07;;;;;;;26.15;15.27;;;3.50;99.90;;;;;;5060164;28;23139;-64
2023/02/08 11:38:35;;;;;;;22.63;14.93;;;3.40;99.90;;;;;;5059622;28;20053;-63
2023/02/08 11:41:12;;;;;;;27.55;18.55;;;3.40;99.90;;;;;;5065208;28;20064;-63
2023/02/08 11:43:39;;;;;;;28.80;15.93;;;3.40;99.90;;;;;;5060915;28;20052;-67
2023/02/08 11:46:07;;;;;;;32.55;18.65;;;3.40;99.90;;;;;;5061240;28;20056;-64
2023/02/08 11:48:42;;;;;;;31.20;16.75;;;3.40;99.90;;;;;;5061229;28;20497;-64
2023/02/08 11:51:13;;;;;;;29.60;17.02;;;3.50;99.90;;;;;;5065279;28;20147;-63
2023/02/08 11:53:46;;;;;;;30.05;17.00;;;3.50;99.90;;;;;;5062800;28;20053;-64
2023/02/08 11:56:26;;;;;;;35.42;16.77;;;3.50;99.90;;;;;;5066138;28;20059;-64
2023/02/08 11:58:58;;;;;;;26.70;16.63;;;3.50;99.90;;;;;;5062361;28;20139;-65
2023/02/08 12:01:29;;;;;;;29.13;15.95;;;3.50;99.90;;;;;;5066519;28;20040;-67
2023/02/08 12:03:58;;;;;;;25.60;16.05;;;3.50;99.90;;;;;;5062680;28;21088;-64
2023/02/08 12:06:36;;;;;;;29.40;17.23;;;3.50;99.90;;;;;;5063228;28;20433;-63
2023/02/08 12:09:29;;;;;;;26.25;16.15;;;3.50;99.90;;;;;;5061147;28;20131;-64
2023/02/08 12:12:22;;;;;;;33.08;15.15;;;3.50;99.90;;;;;;5023087;28;20139;-64
2023/02/08 12:15:21;;;;;;;31.67;17.20;;;3.50;99.90;;;;;;5062644;28;20048;-64
2023/02/08 12:18:03;;;;;;;29.95;15.20;;;3.50;99.90;;;;;;5057683;28;20420;-64
2023/02/08 12:20:46;;;;;;;27.67;15.93;;;3.50;99.90;;;;;;5055036;28;20049;-64
2023/02/08 12:23:12;;;;;;;26.00;15.02;;;3.50;99.90;;;;;;5060056;28;20051;-65
2023/02/08 12:25:39;;;;;;;32.15;16.52;;;3.50;99.90;;;;;;5056847;28;20565;-67
2023/02/08 12:28:13;;;;;;;23.92;14.05;;;3.50;99.90;;;;;;5065181;28;20059;-64
2023/02/08 12:30:48;;;;;;;25.77;15.52;;;3.50;99.90;;;;;;5060865;28;20049;-66
2023/02/08 12:33:41;;;;;;;31.35;16.95;;;3.50;99.90;;;;;;5059064;28;20049;-65
2023/02/08 12:36:14;;;;;;;23.77;15.35;;;3.50;99.90;;;;;;5057173;28;20059;-69
2023/02/08 12:42:23;;;;;;;25.27;16.35;;;3.50;99.90;;;;;;5060471;28;20478;-64
2023/02/08 12:45:22;;;;;;;34.13;16.65;;;3.50;99.90;;;;;;5064033;28;20044;-65
2023/02/08 12:48:15;;;;;;;36.92;19.15;;;3.50;99.90;;;;;;5059292;28;20052;-64
2023/02/08 12:51:15;;;;;;;29.38;15.43;;;3.50;99.90;;;;;;5063847;28;20049;-65
2023/02/08 12:53:47;;;;;;;26.00;14.75;;;3.40;99.90;;;;;;5057630;28;20041;-64
2023/02/08 12:56:26;;;;;;;33.50;19.90;;;3.40;99.90;;;;;;5060950;28;20472;-63
2023/02/08 12:58:57;;;;;;;28.48;15.20;;;3.40;99.90;;;;;;5062679;28;20498;-64
2023/02/08 13:01:43;;;;;;;27.17;17.38;;;3.40;99.90;;;;;;5061578;28;20454;-64
2023/02/08 13:04:22;;;;;;;29.63;16.88;;;3.40;99.90;;;;;;5062361;28;20047;-64
2023/02/08 13:06:55;;;;;;;25.58;15.40;;;3.40;99.90;;;;;;5060559;28;20060;-64